createdAt,value
2018-02-08T00:00:52.501Z,16.60
2018-02-08T00:02:45.735Z,16.10
2018-02-08T00:03:45.659Z,16.00
2018-02-08T00:05:38.914Z,16.10
2018-02-08T00:06:38.818Z,16.20
2018-02-08T00:08:32.066Z,16.00
2018-02-08T00:09:31.983Z,16.30
2018-02-08T00:11:25.246Z,16.90
2018-02-08T00:12:25.152Z,16.60
2018-02-08T00:14:18.388Z,17.00
2018-02-08T00:15:18.310Z,17.50
2018-02-08T00:17:11.185Z,15.80
2018-02-08T00:18:10.979Z,16.80
2018-02-08T00:20:04.248Z,16.20
2018-02-08T00:21:04.152Z,15.80
2018-02-08T00:22:57.407Z,15.90
2018-02-08T00:23:57.333Z,15.50
2018-02-08T00:25:50.591Z,15.90
2018-02-08T00:26:50.496Z,16.10
2018-02-08T00:28:43.742Z,16.30
2018-02-08T00:29:43.667Z,16.10
2018-02-08T00:31:36.930Z,16.30
2018-02-08T00:32:36.837Z,16.50
2018-02-08T00:34:30.074Z,16.30
2018-02-08T00:35:30.001Z,16.90
2018-02-08T00:37:23.256Z,15.60
2018-02-08T00:38:23.163Z,16.20
2018-02-08T00:40:16.411Z,15.70
2018-02-08T00:41:16.328Z,16.10
2018-02-08T00:43:09.562Z,16.90
2018-02-08T00:44:09.485Z,16.30
2018-02-08T00:46:02.748Z,15.60
2018-02-08T00:47:02.653Z,16.10
2018-02-08T00:48:55.896Z,16.60
2018-02-08T00:49:55.818Z,16.20
2018-02-08T00:51:49.084Z,17.20
2018-02-08T00:52:48.986Z,16.00
2018-02-08T00:54:42.233Z,16.50
2018-02-08T00:55:42.156Z,16.70
2018-02-08T00:57:35.428Z,17.30
2018-02-08T00:58:35.332Z,16.50
2018-02-08T01:00:28.599Z,16.80
2018-02-08T01:01:28.504Z,16.80
2018-02-08T01:03:21.749Z,16.60
2018-02-08T01:04:21.677Z,17.00
2018-02-08T01:06:15.052Z,16.70
2018-02-08T01:07:14.839Z,16.80
2018-02-08T01:09:08.086Z,17.10
2018-02-08T01:10:08.011Z,17.90
2018-02-08T01:12:01.274Z,16.50
2018-02-08T01:13:01.178Z,16.50
2018-02-08T01:14:54.423Z,17.00
2018-02-08T01:15:54.346Z,16.40
2018-02-08T01:17:47.608Z,18.20
2018-02-08T01:18:47.513Z,17.80
2018-02-08T01:20:40.889Z,17.70
2018-02-08T01:21:40.680Z,16.20
2018-02-08T01:23:33.916Z,16.90
2018-02-08T01:24:33.839Z,16.80
2018-02-08T01:26:27.101Z,16.70
2018-02-08T01:27:27.006Z,17.00
2018-02-08T01:29:20.258Z,17.90
2018-02-08T01:30:20.178Z,17.00
2018-02-08T01:32:13.443Z,18.10
2018-02-08T01:33:13.346Z,18.30
2018-02-08T01:35:06.625Z,17.70
2018-02-08T01:36:06.551Z,17.20
2018-02-08T01:37:59.812Z,17.10
2018-02-08T01:38:59.717Z,17.50
2018-02-08T01:40:52.973Z,17.20
2018-02-08T01:41:52.878Z,17.70
2018-02-08T01:43:46.126Z,17.70
2018-02-08T01:44:46.051Z,18.30
2018-02-08T01:46:39.424Z,17.20
2018-02-08T01:47:39.347Z,18.10
2018-02-08T01:49:32.579Z,17.90
2018-02-08T01:50:32.503Z,18.50
2018-02-08T01:52:25.767Z,17.70
2018-02-08T01:53:25.672Z,17.60
2018-02-08T01:55:18.919Z,17.60
2018-02-08T01:56:18.836Z,18.30
2018-02-08T01:58:12.098Z,18.50
2018-02-08T01:59:12.002Z,18.60
2018-02-08T02:01:05.268Z,17.90
2018-02-08T02:02:05.173Z,17.50
2018-02-08T02:03:58.415Z,18.10
2018-02-08T02:04:58.338Z,17.90
2018-02-08T02:06:51.612Z,17.60
2018-02-08T02:07:51.508Z,17.80
2018-02-08T02:09:44.737Z,18.50
2018-02-08T02:10:44.669Z,17.80
2018-02-08T02:12:37.930Z,18.30
2018-02-08T02:13:37.830Z,17.70
2018-02-08T02:15:31.073Z,18.70
2018-02-08T02:16:30.996Z,17.10
2018-02-08T02:18:24.262Z,18.30
2018-02-08T02:19:24.165Z,17.00
2018-02-08T02:21:17.541Z,17.70
2018-02-08T02:22:17.330Z,18.00
2018-02-08T02:24:10.573Z,17.80
2018-02-08T02:25:10.496Z,17.90
2018-02-08T02:27:03.759Z,18.60
2018-02-08T02:28:03.663Z,18.10
2018-02-08T02:29:56.898Z,17.60
2018-02-08T02:30:56.822Z,18.30
2018-02-08T02:32:50.084Z,17.20
2018-02-08T02:33:49.988Z,16.70
2018-02-08T02:35:43.234Z,17.00
2018-02-08T02:36:43.154Z,17.80
2018-02-08T02:38:36.420Z,18.00
2018-02-08T02:39:36.326Z,17.00
2018-02-08T02:41:29.587Z,17.70
2018-02-08T02:42:29.494Z,17.60
2018-02-08T02:44:22.754Z,17.90
2018-02-08T02:45:22.678Z,18.40
2018-02-08T02:47:15.938Z,17.20
2018-02-08T02:48:15.843Z,17.40
2018-02-08T02:50:09.077Z,18.00
2018-02-08T02:51:09.003Z,18.50
2018-02-08T02:53:02.278Z,18.10
2018-02-08T02:54:02.180Z,19.00
2018-02-08T02:55:55.426Z,18.60
2018-02-08T02:56:55.347Z,19.00
2018-02-08T02:58:48.607Z,17.60
2018-02-08T02:59:48.510Z,18.80
2018-02-08T03:01:41.770Z,19.30
2018-02-08T03:02:41.675Z,19.00
2018-02-08T03:04:34.427Z,19.20
2018-02-08T03:05:34.347Z,18.60
2018-02-08T03:07:27.609Z,18.90
2018-02-08T03:08:27.513Z,18.60
2018-02-08T03:10:20.746Z,19.30
2018-02-08T03:11:20.675Z,18.70
2018-02-08T03:13:13.932Z,18.80
2018-02-08T03:14:13.836Z,19.50
2018-02-08T03:16:07.195Z,18.90
2018-02-08T03:17:07.002Z,17.70
2018-02-08T03:19:00.267Z,18.90
2018-02-08T03:20:00.172Z,19.40
2018-02-08T03:21:53.430Z,19.10
2018-02-08T03:22:53.335Z,19.80
2018-02-08T03:24:46.578Z,20.80
2018-02-08T03:25:46.503Z,20.00
2018-02-08T03:27:39.766Z,19.80
2018-02-08T03:28:39.671Z,19.70
2018-02-08T03:30:32.911Z,18.40
2018-02-08T03:31:32.837Z,18.70
2018-02-08T03:33:26.100Z,18.60
2018-02-08T03:34:26.003Z,19.30
2018-02-08T03:36:19.360Z,19.60
2018-02-08T03:37:19.170Z,19.60
2018-02-08T03:39:12.430Z,19.60
2018-02-08T03:40:12.334Z,18.90
2018-02-08T03:42:05.599Z,18.30
2018-02-08T03:43:05.505Z,18.50
2018-02-08T03:44:58.745Z,17.80
2018-02-08T03:45:58.665Z,18.80
2018-02-08T03:47:52.042Z,18.90
2018-02-08T03:48:51.837Z,18.50
2018-02-08T03:50:45.196Z,18.70
2018-02-08T03:51:45.004Z,17.70
2018-02-08T03:53:38.265Z,18.10
2018-02-08T03:54:38.171Z,18.20
2018-02-08T03:56:31.412Z,19.50
2018-02-08T03:57:31.335Z,18.00
2018-02-08T03:59:24.592Z,18.70
2018-02-08T04:00:24.498Z,18.80
2018-02-08T04:02:17.759Z,18.70
2018-02-08T04:03:17.666Z,19.20
2018-02-08T04:05:10.909Z,19.40
2018-02-08T04:06:10.884Z,18.10
2018-02-08T04:08:04.093Z,18.90
2018-02-08T04:09:03.997Z,18.40
2018-02-08T04:10:57.240Z,17.70
2018-02-08T04:11:57.166Z,17.90
2018-02-08T04:13:50.426Z,18.60
2018-02-08T04:14:50.332Z,18.20
2018-02-08T04:16:43.571Z,18.10
2018-02-08T04:17:43.495Z,18.10
2018-02-08T04:19:36.874Z,19.00
2018-02-08T04:20:36.661Z,18.80
2018-02-08T04:22:29.427Z,18.90
2018-02-08T04:23:29.330Z,18.70
2018-02-08T04:25:22.583Z,18.50
2018-02-08T04:26:22.494Z,18.10
2018-02-08T04:28:15.763Z,19.40
2018-02-08T04:29:15.661Z,19.40
2018-02-08T04:31:08.904Z,18.00
2018-02-08T04:32:08.827Z,18.60
2018-02-08T04:34:02.089Z,18.70
2018-02-08T04:35:01.995Z,18.60
2018-02-08T04:36:55.236Z,18.80
2018-02-08T04:37:55.159Z,18.70
2018-02-08T04:39:48.413Z,17.70
2018-02-08T04:40:48.312Z,17.80
2018-02-08T04:42:41.689Z,19.20
2018-02-08T04:43:41.480Z,18.90
2018-02-08T04:45:34.837Z,17.80
2018-02-08T04:46:34.648Z,19.10
2018-02-08T04:48:27.910Z,19.00
2018-02-08T04:49:27.813Z,18.70
2018-02-08T04:51:21.068Z,19.30
2018-02-08T04:52:20.980Z,19.40
2018-02-08T04:54:14.354Z,19.30
2018-02-08T04:55:14.146Z,18.30
2018-02-08T04:57:07.426Z,18.60
2018-02-08T04:58:07.331Z,18.60
2018-02-08T05:00:00.564Z,19.00
2018-02-08T05:01:00.485Z,19.20
2018-02-08T05:02:53.749Z,18.70
2018-02-08T05:03:53.650Z,19.10
2018-02-08T05:05:46.893Z,19.40
2018-02-08T05:06:46.814Z,18.50
2018-02-08T05:08:40.077Z,19.10
2018-02-08T05:09:39.983Z,18.90
2018-02-08T05:11:33.224Z,18.70
2018-02-08T05:12:33.148Z,18.80
2018-02-08T05:14:26.411Z,18.40
2018-02-08T05:15:26.308Z,19.00
2018-02-08T05:17:19.576Z,19.20
2018-02-08T05:18:19.480Z,19.80
2018-02-08T05:20:12.744Z,17.90
2018-02-08T05:21:12.648Z,18.90
2018-02-08T05:23:06.021Z,18.60
2018-02-08T05:24:05.813Z,19.30
2018-02-08T05:25:59.053Z,19.80
2018-02-08T05:26:58.976Z,19.10
2018-02-08T05:28:52.238Z,18.90
2018-02-08T05:29:52.139Z,19.30
2018-02-08T05:31:45.406Z,19.70
2018-02-08T05:32:45.327Z,19.30
2018-02-08T05:34:38.592Z,19.80
2018-02-08T05:35:38.497Z,18.60
2018-02-08T05:37:31.882Z,20.30
2018-02-08T05:38:31.659Z,20.10
2018-02-08T05:40:24.896Z,21.00
2018-02-08T05:41:24.819Z,21.60
2018-02-08T05:43:18.080Z,21.20
2018-02-08T05:44:17.984Z,21.90
2018-02-08T05:46:11.229Z,21.50
2018-02-08T05:47:11.151Z,22.10
2018-02-08T05:49:04.411Z,21.60
2018-02-08T05:50:04.316Z,21.60
2018-02-08T05:51:57.560Z,21.60
2018-02-08T05:52:57.504Z,22.10
2018-02-08T05:54:50.747Z,21.50
2018-02-08T05:55:50.648Z,21.20
2018-02-08T05:57:43.918Z,21.30
2018-02-08T05:58:43.816Z,21.80
2018-02-08T06:00:37.062Z,21.40
2018-02-08T06:01:36.985Z,21.80
2018-02-08T06:03:30.244Z,20.80
2018-02-08T06:04:30.147Z,22.20
2018-02-08T06:06:23.412Z,22.60
2018-02-08T06:07:23.327Z,21.60
2018-02-08T06:09:16.588Z,20.50
2018-02-08T06:10:16.492Z,21.60
2018-02-08T06:12:10.585Z,21.20
2018-02-08T06:13:10.508Z,21.40
2018-02-08T06:15:03.769Z,21.50
2018-02-08T06:16:03.672Z,21.60
2018-02-08T06:17:56.939Z,21.90
2018-02-08T06:18:56.838Z,23.30
2018-02-08T06:20:50.080Z,22.30
2018-02-08T06:21:50.006Z,22.40
2018-02-08T06:23:43.265Z,22.30
2018-02-08T06:24:43.169Z,22.50
2018-02-08T06:26:36.412Z,23.40
2018-02-08T06:27:36.336Z,22.50
2018-02-08T06:29:29.595Z,23.10
2018-02-08T06:30:29.499Z,22.90
2018-02-08T06:32:22.745Z,22.80
2018-02-08T06:33:22.665Z,23.10
2018-02-08T06:35:15.926Z,22.50
2018-02-08T06:36:15.828Z,22.60
2018-02-08T06:38:09.088Z,23.00
2018-02-08T06:39:08.996Z,23.40
2018-02-08T06:41:02.237Z,22.60
2018-02-08T06:42:02.160Z,23.10
2018-02-08T06:43:55.431Z,22.10
2018-02-08T06:44:55.336Z,21.90
2018-02-08T06:46:48.571Z,21.50
2018-02-08T06:47:48.494Z,22.20
2018-02-08T06:49:41.748Z,22.50
2018-02-08T06:50:41.653Z,23.60
2018-02-08T06:52:35.032Z,22.30
2018-02-08T06:53:34.815Z,22.20
2018-02-08T06:55:28.076Z,22.60
2018-02-08T06:56:27.980Z,22.30
2018-02-08T06:58:21.357Z,22.10
2018-02-08T06:59:21.172Z,22.40
2018-02-08T07:01:14.421Z,22.80
2018-02-08T07:02:14.349Z,21.60
2018-02-08T07:04:07.609Z,21.90
2018-02-08T07:05:07.512Z,21.20
2018-02-08T07:07:00.765Z,21.00
2018-02-08T07:08:00.686Z,21.50
2018-02-08T07:09:53.947Z,21.50
2018-02-08T07:10:53.853Z,21.30
2018-02-08T07:12:47.123Z,21.00
2018-02-08T07:13:47.021Z,22.00
2018-02-08T07:15:40.279Z,21.60
2018-02-08T07:16:40.184Z,21.80
2018-02-08T07:18:33.561Z,22.20
2018-02-08T07:19:33.350Z,21.00
2018-02-08T07:21:26.592Z,21.60
2018-02-08T07:22:26.517Z,22.80
2018-02-08T07:24:19.779Z,21.20
2018-02-08T07:25:19.683Z,22.10
2018-02-08T07:27:12.926Z,21.30
2018-02-08T07:28:12.853Z,22.20
2018-02-08T07:30:06.226Z,22.40
2018-02-08T07:31:06.013Z,22.00
2018-02-08T07:32:59.256Z,21.20
2018-02-08T07:33:59.176Z,21.40
2018-02-08T07:35:52.047Z,21.80
2018-02-08T07:36:51.849Z,21.80
2018-02-08T07:38:45.115Z,21.90
2018-02-08T07:39:45.019Z,21.80
2018-02-08T07:41:38.267Z,22.10
2018-02-08T07:42:38.184Z,22.40
2018-02-08T07:44:31.443Z,22.50
2018-02-08T07:45:31.349Z,23.20
2018-02-08T07:47:24.594Z,22.70
2018-02-08T07:48:24.515Z,23.80
2018-02-08T07:50:17.782Z,23.80
2018-02-08T07:51:17.684Z,24.10
2018-02-08T07:53:10.928Z,23.50
2018-02-08T07:54:10.853Z,24.30
2018-02-08T07:56:04.116Z,23.50
2018-02-08T07:57:04.019Z,24.60
2018-02-08T07:58:57.278Z,23.70
2018-02-08T07:59:57.184Z,22.70
2018-02-08T08:01:50.435Z,23.30
2018-02-08T08:02:50.361Z,22.80
2018-02-08T08:04:43.633Z,23.30
2018-02-08T08:05:43.527Z,22.70
2018-02-08T08:07:36.774Z,23.20
2018-02-08T08:08:36.696Z,22.60
2018-02-08T08:10:29.973Z,22.00
2018-02-08T08:11:29.876Z,23.20
2018-02-08T08:13:23.117Z,24.30
2018-02-08T08:14:23.037Z,23.70
2018-02-08T08:16:16.301Z,22.70
2018-02-08T08:17:16.206Z,23.50
2018-02-08T08:19:09.470Z,21.40
2018-02-08T08:20:09.375Z,21.30
2018-02-08T08:22:02.617Z,21.80
2018-02-08T08:23:02.543Z,22.20
2018-02-08T08:24:55.805Z,20.40
2018-02-08T08:25:55.710Z,22.40
2018-02-08T08:27:48.953Z,21.00
2018-02-08T08:28:48.880Z,19.60
2018-02-08T08:30:42.255Z,20.90
2018-02-08T08:31:42.040Z,21.40
2018-02-08T08:33:35.402Z,20.30
2018-02-08T08:34:35.330Z,19.90
2018-02-08T08:36:28.578Z,20.30
2018-02-08T08:37:28.482Z,20.10
2018-02-08T08:39:21.736Z,20.60
2018-02-08T08:40:21.641Z,20.50
2018-02-08T08:42:14.882Z,20.80
2018-02-08T08:43:14.800Z,21.60
2018-02-08T08:45:08.053Z,20.20
2018-02-08T08:46:07.959Z,20.50
2018-02-08T08:48:01.194Z,19.90
2018-02-08T08:49:01.118Z,20.20
2018-02-08T08:50:54.371Z,20.50
2018-02-08T08:51:54.269Z,20.30
2018-02-08T08:53:47.515Z,19.80
2018-02-08T08:54:47.438Z,20.00
2018-02-08T08:56:40.693Z,19.80
2018-02-08T08:57:40.594Z,20.10
2018-02-08T08:59:33.856Z,20.10
2018-02-08T09:00:33.759Z,20.50
2018-02-08T09:02:27.000Z,19.60
2018-02-08T09:03:26.922Z,21.50
2018-02-08T09:05:20.300Z,20.00
2018-02-08T09:06:20.081Z,21.70
2018-02-08T09:08:13.406Z,20.50
2018-02-08T09:09:13.327Z,20.30
2018-02-08T09:11:06.594Z,21.40
2018-02-08T09:12:06.501Z,20.60
2018-02-08T09:13:59.863Z,20.80
2018-02-08T09:14:59.662Z,21.80
2018-02-08T09:16:52.926Z,20.20
2018-02-08T09:17:52.834Z,20.10
2018-02-08T09:19:46.097Z,20.40
2018-02-08T09:20:45.998Z,19.80
2018-02-08T09:22:39.259Z,21.50
2018-02-08T09:23:39.163Z,21.80
2018-02-08T09:25:32.417Z,21.10
2018-02-08T09:26:32.325Z,20.80
2018-02-08T09:28:25.564Z,20.30
2018-02-08T09:29:25.482Z,20.50
2018-02-08T09:31:18.741Z,20.60
2018-02-08T09:32:18.648Z,21.20
2018-02-08T09:34:11.887Z,22.20
2018-02-08T09:35:11.814Z,22.00
2018-02-08T09:37:05.079Z,20.30
2018-02-08T09:38:05.043Z,21.40
2018-02-08T09:39:58.244Z,20.90
2018-02-08T09:40:58.150Z,20.90
2018-02-08T09:42:51.400Z,21.80
2018-02-08T09:43:51.328Z,21.50
2018-02-08T09:45:44.583Z,21.90
2018-02-08T09:46:44.490Z,21.30
2018-02-08T09:48:37.730Z,21.40
2018-02-08T09:49:37.655Z,21.10
2018-02-08T09:51:30.917Z,23.30
2018-02-08T09:52:30.821Z,22.00
2018-02-08T09:54:24.183Z,21.80
2018-02-08T09:55:24.029Z,21.80
2018-02-08T09:57:17.279Z,21.90
2018-02-08T09:58:17.188Z,21.40
2018-02-08T10:00:10.451Z,23.00
2018-02-08T10:01:10.364Z,21.90
2018-02-08T10:03:03.605Z,22.30
2018-02-08T10:04:03.531Z,22.50
2018-02-08T10:05:56.797Z,23.30
2018-02-08T10:06:56.701Z,22.60
2018-02-08T10:08:49.989Z,24.50
2018-02-08T10:09:49.886Z,23.60
2018-02-08T10:11:43.151Z,24.70
2018-02-08T10:12:43.060Z,23.70
2018-02-08T10:14:36.306Z,24.80
2018-02-08T10:15:36.236Z,23.80
2018-02-08T10:17:29.620Z,24.30
2018-02-08T10:18:29.408Z,24.20
2018-02-08T10:20:22.680Z,25.30
2018-02-08T10:21:22.588Z,24.50
2018-02-08T10:23:15.830Z,23.20
2018-02-08T10:24:15.759Z,23.80
2018-02-08T10:26:09.144Z,22.60
2018-02-08T10:27:08.934Z,23.00
2018-02-08T10:29:02.193Z,23.30
2018-02-08T10:30:02.123Z,23.10
2018-02-08T10:31:55.390Z,22.20
2018-02-08T10:32:55.294Z,22.30
2018-02-08T10:34:48.546Z,22.60
2018-02-08T10:35:48.474Z,22.00
2018-02-08T10:37:41.743Z,22.70
2018-02-08T10:38:41.652Z,22.00
2018-02-08T10:40:35.038Z,21.80
2018-02-08T10:41:34.833Z,21.40
2018-02-08T10:43:28.080Z,21.20
2018-02-08T10:44:28.009Z,20.90
2018-02-08T10:46:21.296Z,22.20
2018-02-08T10:47:21.199Z,22.60
2018-02-08T10:49:14.450Z,22.70
2018-02-08T10:50:14.386Z,22.70
2018-02-08T10:52:07.648Z,23.10
2018-02-08T10:53:07.562Z,21.70
2018-02-08T10:55:00.810Z,20.20
2018-02-08T10:56:00.739Z,20.90
2018-02-08T10:57:55.017Z,21.30
2018-02-08T10:58:54.930Z,21.10
2018-02-08T11:00:48.198Z,21.20
2018-02-08T11:01:48.105Z,21.20
2018-02-08T11:03:41.416Z,20.50
2018-02-08T11:04:41.343Z,21.50
2018-02-08T11:06:34.632Z,20.80
2018-02-08T11:07:34.540Z,21.10
2018-02-08T11:09:27.892Z,21.70
2018-02-08T11:10:27.720Z,21.30
2018-02-08T11:12:20.984Z,20.00
2018-02-08T11:13:20.893Z,20.60
2018-02-08T11:15:14.141Z,20.30
2018-02-08T11:16:14.069Z,20.70
2018-02-08T11:18:07.431Z,20.30
2018-02-08T11:19:07.342Z,21.50
2018-02-08T11:21:00.608Z,20.90
2018-02-08T11:22:00.519Z,21.20
2018-02-08T11:23:53.766Z,20.10
2018-02-08T11:24:53.698Z,21.40
2018-02-08T11:26:46.968Z,21.90
2018-02-08T11:27:46.881Z,20.80
2018-02-08T11:29:40.136Z,21.10
2018-02-08T11:30:40.063Z,20.10
2018-02-08T11:32:33.429Z,20.60
2018-02-08T11:33:33.339Z,20.80
2018-02-08T11:35:26.582Z,19.30
2018-02-08T11:36:26.510Z,19.90
2018-02-08T11:38:19.772Z,21.00
2018-02-08T11:39:19.681Z,19.80
2018-02-08T11:41:12.943Z,18.70
2018-02-08T11:42:12.851Z,20.00
2018-02-08T11:44:06.106Z,20.80
2018-02-08T11:45:06.039Z,21.40
2018-02-08T11:46:59.437Z,20.50
2018-02-08T11:47:59.351Z,20.70
2018-02-08T11:49:52.599Z,21.10
2018-02-08T11:50:52.513Z,20.30
2018-02-08T11:52:45.773Z,20.50
2018-02-08T11:53:45.681Z,19.90
2018-02-08T11:55:38.922Z,20.30
2018-02-08T11:56:38.849Z,20.20
2018-02-08T11:58:32.122Z,23.00
2018-02-08T11:59:32.033Z,20.40
2018-02-08T12:01:25.415Z,20.40
2018-02-08T12:02:25.198Z,20.20
2018-02-08T12:04:18.439Z,20.10
2018-02-08T12:05:18.366Z,20.40
2018-02-08T12:07:11.626Z,20.80
2018-02-08T12:08:11.533Z,19.60
2018-02-08T12:10:04.775Z,19.70
2018-02-08T12:11:04.705Z,20.30
2018-02-08T12:12:57.973Z,19.50
2018-02-08T12:13:57.882Z,19.30
2018-02-08T12:15:51.119Z,19.40
2018-02-08T12:16:51.045Z,18.40
2018-02-08T12:18:44.306Z,17.90
2018-02-08T12:19:44.214Z,18.10
2018-02-08T12:21:37.487Z,18.20
2018-02-08T12:22:37.396Z,18.10
2018-02-08T12:24:30.758Z,18.90
2018-02-08T12:25:30.568Z,19.10
2018-02-08T12:27:23.838Z,18.70
2018-02-08T12:28:23.749Z,18.10
2018-02-08T12:30:16.999Z,18.60
2018-02-08T12:31:16.950Z,18.60
2018-02-08T12:33:10.192Z,19.20
2018-02-08T12:34:10.099Z,19.00
2018-02-08T12:36:04.188Z,17.80
2018-02-08T12:37:04.112Z,17.90
2018-02-08T12:38:57.433Z,17.60
2018-02-08T12:39:57.339Z,18.50
2018-02-08T12:41:50.608Z,17.80
2018-02-08T12:42:50.515Z,17.40
2018-02-08T12:44:43.756Z,17.30
2018-02-08T12:45:43.683Z,17.60
2018-02-08T12:47:36.941Z,17.80
2018-02-08T12:48:36.848Z,18.80
2018-02-08T12:50:31.089Z,18.30
2018-02-08T12:51:31.016Z,18.30
2018-02-08T12:53:24.396Z,18.50
2018-02-08T12:54:24.183Z,18.60
2018-02-08T12:56:17.420Z,17.90
2018-02-08T12:57:17.348Z,17.90
2018-02-08T12:59:10.624Z,18.50
2018-02-08T13:00:10.510Z,17.40
2018-02-08T13:02:03.780Z,17.80
2018-02-08T13:03:03.688Z,17.00
2018-02-08T13:04:56.927Z,19.00
2018-02-08T13:05:56.907Z,19.10
2018-02-08T13:07:50.112Z,18.00
2018-02-08T13:08:50.017Z,17.70
2018-02-08T13:10:43.257Z,17.30
2018-02-08T13:11:43.187Z,17.80
2018-02-08T13:13:36.568Z,17.60
2018-02-08T13:14:36.352Z,17.20
2018-02-08T13:16:29.712Z,18.20
2018-02-08T13:17:29.520Z,18.00
2018-02-08T13:19:22.773Z,18.80
2018-02-08T13:20:22.684Z,18.50
2018-02-08T13:22:15.942Z,18.30
2018-02-08T13:23:15.850Z,17.50
2018-02-08T13:25:09.087Z,18.30
2018-02-08T13:26:09.013Z,17.80
2018-02-08T13:28:02.270Z,17.10
2018-02-08T13:29:02.177Z,19.60
2018-02-08T13:30:55.539Z,18.10
2018-02-08T13:31:55.345Z,17.60
2018-02-08T13:33:48.602Z,17.30
2018-02-08T13:34:48.507Z,17.40
2018-02-08T13:36:41.749Z,17.60
2018-02-08T13:37:41.673Z,17.10
2018-02-08T13:39:35.069Z,17.90
2018-02-08T13:40:34.839Z,17.50
2018-02-08T13:42:28.100Z,16.40
2018-02-08T13:43:28.005Z,16.20
2018-02-08T13:45:21.246Z,18.00
2018-02-08T13:46:21.171Z,17.00
2018-02-08T13:48:14.436Z,17.00
2018-02-08T13:49:14.339Z,17.70
2018-02-08T13:51:07.701Z,16.70
2018-02-08T13:52:07.508Z,17.50
2018-02-08T13:54:00.768Z,15.80
2018-02-08T13:55:00.680Z,16.30
2018-02-08T13:56:54.039Z,16.60
2018-02-08T13:57:53.844Z,16.30
2018-02-08T13:59:47.107Z,15.90
2018-02-08T14:00:47.015Z,16.30
2018-02-08T14:02:40.272Z,15.70
2018-02-08T14:03:40.180Z,15.50
2018-02-08T14:05:33.419Z,16.00
2018-02-08T14:06:33.344Z,17.20
2018-02-08T14:08:26.603Z,16.20
2018-02-08T14:09:26.510Z,16.80
2018-02-08T14:11:19.751Z,16.50
2018-02-08T14:12:19.676Z,17.30
2018-02-08T14:14:12.934Z,17.50
2018-02-08T14:15:12.847Z,17.10
2018-02-08T14:17:06.083Z,17.90
2018-02-08T14:18:06.010Z,19.50
2018-02-08T14:19:59.269Z,21.50
2018-02-08T14:20:59.177Z,19.30
2018-02-08T14:22:52.439Z,18.70
2018-02-08T14:23:52.345Z,17.90
2018-02-08T14:25:45.585Z,18.10
2018-02-08T14:26:45.509Z,19.10
2018-02-08T14:28:38.774Z,18.60
2018-02-08T14:29:38.678Z,17.80
2018-02-08T14:31:31.927Z,17.80
2018-02-08T14:32:31.847Z,17.20
2018-02-08T14:34:25.105Z,18.20
2018-02-08T14:35:25.013Z,18.30
2018-02-08T14:37:18.253Z,17.80
2018-02-08T14:38:18.178Z,18.30
2018-02-08T14:40:11.558Z,17.50
2018-02-08T14:41:11.344Z,18.10
2018-02-08T14:43:04.601Z,18.00
2018-02-08T14:44:04.508Z,18.20
2018-02-08T14:45:57.871Z,17.90
2018-02-08T14:46:57.685Z,17.60
2018-02-08T14:48:50.931Z,18.50
2018-02-08T14:49:50.847Z,17.40
2018-02-08T14:51:44.077Z,19.00
2018-02-08T14:52:44.004Z,20.40
2018-02-08T14:54:37.265Z,17.70
2018-02-08T14:55:37.174Z,18.00
2018-02-08T14:57:30.413Z,17.50
2018-02-08T14:58:30.339Z,17.30
2018-02-08T15:00:23.598Z,17.30
2018-02-08T15:01:23.504Z,17.00
2018-02-08T15:03:16.767Z,17.60
2018-02-08T15:04:16.680Z,17.40
2018-02-08T15:06:09.911Z,16.80
2018-02-08T15:07:09.834Z,17.30
2018-02-08T15:09:03.106Z,16.70
2018-02-08T15:10:03.016Z,16.60
2018-02-08T15:11:56.264Z,17.20
2018-02-08T15:12:56.186Z,16.70
2018-02-08T15:14:49.443Z,16.70
2018-02-08T15:15:49.350Z,16.80
2018-02-08T15:17:42.587Z,16.60
2018-02-08T15:18:42.514Z,15.60
2018-02-08T15:20:35.981Z,16.20
2018-02-08T15:21:35.839Z,16.60
2018-02-08T15:23:29.095Z,15.20
2018-02-08T15:24:29.001Z,15.50
2018-02-08T15:26:22.240Z,19.70
2018-02-08T15:27:22.168Z,18.40
2018-02-08T15:29:15.425Z,15.40
2018-02-08T15:30:15.333Z,15.00
2018-02-08T15:32:08.573Z,14.80
2018-02-08T15:33:08.499Z,15.10
2018-02-08T15:35:01.755Z,14.60
2018-02-08T15:36:01.661Z,14.80
2018-02-08T15:37:55.029Z,14.40
2018-02-08T15:38:54.846Z,14.70
2018-02-08T15:40:48.107Z,14.80
2018-02-08T15:41:48.012Z,14.20
2018-02-08T15:43:41.251Z,14.50
2018-02-08T15:44:41.178Z,14.50
2018-02-08T15:46:34.435Z,14.80
2018-02-08T15:47:34.345Z,14.90
2018-02-08T15:49:27.603Z,14.00
2018-02-08T15:50:27.513Z,14.10
2018-02-08T15:52:20.752Z,13.20
2018-02-08T15:53:20.675Z,13.90
2018-02-08T15:55:13.931Z,13.40
2018-02-08T15:56:13.840Z,14.00
2018-02-08T15:58:07.078Z,14.90
2018-02-08T15:59:07.002Z,13.90
2018-02-08T16:01:00.264Z,13.90
2018-02-08T16:02:00.172Z,14.30
2018-02-08T16:03:53.414Z,15.40
2018-02-08T16:04:53.338Z,13.40
2018-02-08T16:06:46.588Z,14.40
2018-02-08T16:07:46.498Z,14.90
2018-02-08T16:09:39.745Z,16.40
2018-02-08T16:10:39.667Z,16.50
2018-02-08T16:12:32.924Z,15.60
2018-02-08T16:13:32.832Z,15.30
2018-02-08T16:15:26.090Z,15.30
2018-02-08T16:16:25.999Z,15.30
2018-02-08T16:18:19.238Z,17.10
2018-02-08T16:19:19.161Z,17.70
2018-02-08T16:21:12.443Z,16.20
2018-02-08T16:22:12.349Z,17.60
2018-02-08T16:24:05.589Z,16.20
2018-02-08T16:25:05.516Z,16.50
2018-02-08T16:26:58.769Z,16.60
2018-02-08T16:27:58.682Z,16.30
2018-02-08T16:29:51.925Z,16.40
2018-02-08T16:30:51.843Z,16.50
2018-02-08T16:32:45.116Z,15.80
2018-02-08T16:33:45.013Z,16.80
2018-02-08T16:35:38.260Z,16.60
2018-02-08T16:36:38.182Z,16.60
2018-02-08T16:38:31.651Z,17.00
2018-02-08T16:39:31.407Z,16.80
2018-02-08T16:41:24.618Z,17.90
2018-02-08T16:42:24.525Z,16.40
2018-02-08T16:44:17.765Z,16.70
2018-02-08T16:45:17.689Z,17.30
2018-02-08T16:47:10.948Z,17.00
2018-02-08T16:48:10.853Z,17.00
2018-02-08T16:50:04.093Z,17.00
2018-02-08T16:51:04.024Z,17.60
2018-02-08T16:52:57.276Z,17.70
2018-02-08T16:53:57.183Z,16.60
2018-02-08T16:55:50.542Z,17.20
2018-02-08T16:56:50.389Z,17.70
2018-02-08T16:58:43.624Z,17.30
2018-02-08T16:59:43.530Z,17.80
2018-02-08T17:01:36.784Z,18.10
2018-02-08T17:02:36.709Z,20.90
2018-02-08T17:04:29.974Z,21.00
2018-02-08T17:05:29.884Z,21.30
2018-02-08T17:07:23.281Z,18.20
2018-02-08T17:08:23.055Z,19.10
2018-02-08T17:10:16.313Z,22.40
2018-02-08T17:11:16.223Z,21.00
2018-02-08T17:13:09.487Z,19.80
2018-02-08T17:14:09.393Z,18.90
2018-02-08T17:16:02.755Z,19.00
2018-02-08T17:17:02.566Z,19.70
2018-02-08T17:18:55.833Z,19.90
2018-02-08T17:19:55.741Z,19.40
2018-02-08T17:21:48.989Z,19.20
2018-02-08T17:22:48.915Z,19.00
2018-02-08T17:24:42.183Z,19.70
2018-02-08T17:25:42.089Z,19.30
2018-02-08T17:27:35.405Z,20.90
2018-02-08T17:28:35.330Z,21.00
2018-02-08T17:30:28.589Z,19.70
2018-02-08T17:31:28.496Z,20.00
2018-02-08T17:33:21.732Z,20.20
2018-02-08T17:34:21.658Z,19.60
2018-02-08T17:36:14.925Z,20.10
2018-02-08T17:37:14.819Z,19.50
2018-02-08T17:39:08.085Z,18.80
2018-02-08T17:40:07.979Z,20.50
2018-02-08T17:42:01.224Z,19.80
2018-02-08T17:43:01.192Z,18.80
2018-02-08T17:44:54.394Z,19.30
2018-02-08T17:45:54.299Z,19.30
2018-02-08T17:47:47.662Z,19.80
2018-02-08T17:48:47.463Z,19.70
2018-02-08T17:50:40.717Z,18.80
2018-02-08T17:51:40.622Z,19.50
2018-02-08T17:53:33.868Z,19.30
2018-02-08T17:54:33.784Z,19.80
2018-02-08T17:56:27.042Z,20.40
2018-02-08T17:57:26.945Z,20.20
2018-02-08T17:59:20.206Z,19.20
2018-02-08T18:00:20.101Z,19.20
2018-02-08T18:02:13.411Z,18.80
2018-02-08T18:03:13.329Z,19.40
2018-02-08T18:05:06.589Z,20.20
2018-02-08T18:06:06.496Z,20.60
2018-02-08T18:07:59.731Z,20.90
2018-02-08T18:08:59.653Z,20.00
2018-02-08T18:10:52.924Z,19.60
2018-02-08T18:11:52.826Z,20.00
2018-02-08T18:13:46.072Z,20.50
2018-02-08T18:14:45.998Z,20.20
2018-02-08T18:16:39.252Z,20.60
2018-02-08T18:17:39.156Z,19.10
2018-02-08T18:19:32.395Z,18.80
2018-02-08T18:20:32.320Z,19.70
2018-02-08T18:22:25.575Z,19.60
2018-02-08T18:23:25.479Z,20.70
2018-02-08T18:25:18.830Z,18.90
2018-02-08T18:26:18.639Z,19.70
2018-02-08T18:28:11.894Z,19.50
2018-02-08T18:29:11.799Z,20.00
2018-02-08T18:31:05.169Z,20.40
2018-02-08T18:32:04.962Z,19.50
2018-02-08T18:33:58.216Z,19.20
2018-02-08T18:34:58.125Z,19.90